createdAt,value
2024-02-06T00:00:16.983Z,5.47
2024-02-06T00:02:43.499Z,5.57
2024-02-06T00:05:12.276Z,4.85
2024-02-06T00:07:39.355Z,5.70
2024-02-06T00:10:06.169Z,5.45
2024-02-06T00:12:32.606Z,6.20
2024-02-06T00:14:59.149Z,5.40
2024-02-06T00:17:25.780Z,5.50
2024-02-06T00:19:52.313Z,4.70
2024-02-06T00:22:19.011Z,4.20
2024-02-06T00:24:46.361Z,4.63
2024-02-06T00:27:12.808Z,4.63
2024-02-06T00:29:39.347Z,4.20
2024-02-06T00:32:07.616Z,4.50
2024-02-06T00:34:34.425Z,3.85
2024-02-06T00:37:01.162Z,4.60
2024-02-06T00:39:27.645Z,4.30
2024-02-06T00:41:54.111Z,3.75
2024-02-06T00:44:20.815Z,4.00
2024-02-06T00:46:47.388Z,3.60
2024-02-06T00:49:14.114Z,3.90
2024-02-06T00:51:40.770Z,4.43
2024-02-06T00:54:07.310Z,4.05
2024-02-06T00:56:33.734Z,4.00
2024-02-06T00:59:00.210Z,4.60
2024-02-06T01:03:55.584Z,3.53
2024-02-06T01:07:47.898Z,4.35
2024-02-06T01:10:14.564Z,4.05
2024-02-06T01:12:41.073Z,4.30
2024-02-06T01:15:07.835Z,4.65
2024-02-06T01:17:34.422Z,4.15
2024-02-06T01:20:01.057Z,4.60
2024-02-06T01:22:27.672Z,4.78
2024-02-06T01:24:55.400Z,4.82
2024-02-06T01:27:21.938Z,4.40
2024-02-06T01:29:49.245Z,3.63
2024-02-06T01:32:15.750Z,3.95
2024-02-06T01:34:42.951Z,4.10
2024-02-06T01:37:09.598Z,4.13
2024-02-06T01:39:36.136Z,3.85
2024-02-06T01:42:05.849Z,4.22
2024-02-06T01:44:32.297Z,3.90
2024-02-06T01:46:59.201Z,4.20
2024-02-06T01:49:26.175Z,4.30
2024-02-06T01:51:53.594Z,3.83
2024-02-06T01:54:21.211Z,4.28
2024-02-06T01:56:48.430Z,3.95
2024-02-06T01:59:15.058Z,4.13
2024-02-06T02:01:41.963Z,4.22
2024-02-06T02:04:10.392Z,3.55
2024-02-06T02:06:37.249Z,4.10
2024-02-06T02:09:08.185Z,5.15
2024-02-06T02:11:35.357Z,4.13
2024-02-06T02:14:01.851Z,4.63
2024-02-06T02:16:28.364Z,3.92
2024-02-06T02:18:56.185Z,4.32
2024-02-06T02:21:22.844Z,4.13
2024-02-06T02:23:49.376Z,4.40
2024-02-06T02:26:15.874Z,3.72
2024-02-06T02:28:43.189Z,4.63
2024-02-06T02:31:10.369Z,4.93
2024-02-06T02:33:37.487Z,4.68
2024-02-06T02:36:05.256Z,4.82
2024-02-06T02:38:31.727Z,4.15
2024-02-06T02:40:58.169Z,4.45
2024-02-06T02:43:25.654Z,4.03
2024-02-06T02:45:52.544Z,4.15
2024-02-06T02:48:19.183Z,3.97
2024-02-06T02:50:45.752Z,4.20
2024-02-06T02:53:12.284Z,3.63
2024-02-06T02:55:38.773Z,3.90
2024-02-06T02:58:06.735Z,4.72
2024-02-06T03:00:34.887Z,4.50
2024-02-06T03:03:01.622Z,4.10
2024-02-06T03:05:28.243Z,4.82
2024-02-06T03:07:55.107Z,4.43
2024-02-06T03:10:21.729Z,4.47
2024-02-06T03:12:48.403Z,4.65
2024-02-06T03:15:14.840Z,4.30
2024-02-06T03:17:41.328Z,4.43
2024-02-06T03:20:08.252Z,4.20
2024-02-06T03:22:34.847Z,4.50
2024-02-06T03:25:01.770Z,4.88
2024-02-06T03:27:28.374Z,4.53
2024-02-06T03:29:54.913Z,4.15
2024-02-06T03:32:21.367Z,4.38
2024-02-06T03:34:48.033Z,5.20
2024-02-06T03:37:14.704Z,4.18
2024-02-06T03:39:41.202Z,4.38
2024-02-06T03:42:07.690Z,4.05
2024-02-06T03:44:34.498Z,3.95
2024-02-06T03:47:01.091Z,4.00
2024-02-06T03:49:28.976Z,4.25
2024-02-06T03:51:55.563Z,4.82
2024-02-06T03:54:22.100Z,4.00
2024-02-06T03:56:48.790Z,4.20
2024-02-06T03:59:15.331Z,4.15
2024-02-06T04:01:41.969Z,4.53
2024-02-06T04:04:08.622Z,4.05
2024-02-06T04:06:35.147Z,4.82
2024-02-06T04:09:01.632Z,4.25
2024-02-06T04:11:28.054Z,5.05
2024-02-06T04:13:54.516Z,4.65
2024-02-06T04:16:21.084Z,5.00
2024-02-06T04:18:47.591Z,4.38
2024-02-06T04:21:14.161Z,4.65
2024-02-06T04:23:41.626Z,4.60
2024-02-06T04:26:08.085Z,4.82
2024-02-06T04:28:34.591Z,4.78
2024-02-06T04:31:01.080Z,4.90
2024-02-06T04:33:27.882Z,5.10
2024-02-06T04:35:54.424Z,4.55
2024-02-06T04:38:20.953Z,4.28
2024-02-06T04:40:47.548Z,4.45
2024-02-06T04:43:14.267Z,4.85
2024-02-06T04:45:40.790Z,4.97
2024-02-06T04:48:07.870Z,5.95
2024-02-06T04:50:34.441Z,4.70
2024-02-06T04:53:04.806Z,4.35
2024-02-06T04:55:32.081Z,5.50
2024-02-06T04:57:59.222Z,4.22
2024-02-06T05:00:25.799Z,4.70
2024-02-06T05:02:52.342Z,4.82
2024-02-06T05:05:19.131Z,4.70
2024-02-06T05:07:45.789Z,4.60
2024-02-06T05:10:12.466Z,4.57
2024-02-06T05:12:38.929Z,5.00
2024-02-06T05:15:05.752Z,4.13
2024-02-06T05:17:32.388Z,5.70
2024-02-06T05:19:59.483Z,4.32
2024-02-06T05:22:26.089Z,4.00
2024-02-06T05:24:52.854Z,4.63
2024-02-06T05:27:19.369Z,4.60
2024-02-06T05:29:45.851Z,5.28
2024-02-06T05:32:12.559Z,3.63
2024-02-06T05:34:39.109Z,4.80
2024-02-06T05:37:05.815Z,3.42
2024-02-06T05:39:32.468Z,4.25
2024-02-06T05:41:59.157Z,4.35
2024-02-06T05:44:25.598Z,4.40
2024-02-06T05:46:52.113Z,4.70
2024-02-06T05:49:18.605Z,4.53
2024-02-06T05:51:45.135Z,4.88
2024-02-06T05:54:11.777Z,4.22
2024-02-06T05:56:38.246Z,4.60
2024-02-06T05:59:05.545Z,4.75
2024-02-06T06:01:32.419Z,5.07
2024-02-06T06:03:59.528Z,4.68
2024-02-06T06:06:26.339Z,4.55
2024-02-06T06:08:52.958Z,4.70
2024-02-06T06:11:21.288Z,4.72
2024-02-06T06:13:47.819Z,5.25
2024-02-06T06:16:14.419Z,4.90
2024-02-06T06:18:41.101Z,4.82
2024-02-06T06:21:07.564Z,4.72
2024-02-06T06:23:34.126Z,4.63
2024-02-06T06:26:00.872Z,4.95
2024-02-06T06:28:27.378Z,4.43
2024-02-06T06:30:54.051Z,4.45
2024-02-06T06:33:21.223Z,4.60
2024-02-06T06:35:47.754Z,5.38
2024-02-06T06:38:14.273Z,5.65
2024-02-06T06:40:40.949Z,5.10
2024-02-06T06:43:07.748Z,4.70
2024-02-06T06:45:35.806Z,4.80
2024-02-06T06:48:02.494Z,4.40
2024-02-06T06:50:29.328Z,4.45
2024-02-06T06:52:55.859Z,4.60
2024-02-06T06:55:22.352Z,4.75
2024-02-06T06:57:49.379Z,4.50
2024-02-06T07:00:16.987Z,4.72
2024-02-06T07:02:44.345Z,5.53
2024-02-06T07:05:13.849Z,4.28
2024-02-06T07:07:40.564Z,4.18
2024-02-06T07:10:07.678Z,4.25
2024-02-06T07:12:34.398Z,5.22
2024-02-06T07:15:01.217Z,6.32
2024-02-06T07:17:27.737Z,5.22
2024-02-06T07:19:54.329Z,4.90
2024-02-06T07:22:20.841Z,4.88
2024-02-06T07:24:47.402Z,4.60
2024-02-06T07:27:13.933Z,3.92
2024-02-06T07:29:40.569Z,6.00
2024-02-06T07:32:07.428Z,4.60
2024-02-06T07:34:34.108Z,5.00
2024-02-06T07:37:00.865Z,4.50
2024-02-06T07:39:27.973Z,5.43
2024-02-06T07:41:55.749Z,4.75
2024-02-06T07:44:23.170Z,4.93
2024-02-06T07:46:49.763Z,5.45
2024-02-06T07:49:16.390Z,4.97
2024-02-06T07:51:43.201Z,4.93
2024-02-06T07:54:09.855Z,4.82
2024-02-06T07:56:37.480Z,5.40
2024-02-06T07:59:05.438Z,4.43
2024-02-06T08:01:32.195Z,5.72
2024-02-06T08:04:00.447Z,5.45
2024-02-06T08:06:28.642Z,4.82
2024-02-06T08:08:55.248Z,5.18
2024-02-06T08:11:23.959Z,4.95
2024-02-06T08:13:50.505Z,4.82
2024-02-06T08:16:17.269Z,5.22
2024-02-06T08:18:43.893Z,6.15
2024-02-06T08:21:10.457Z,5.07
2024-02-06T08:23:36.967Z,4.95
2024-02-06T08:26:04.348Z,5.30
2024-02-06T08:28:30.906Z,6.75
2024-02-06T08:31:00.510Z,5.45
2024-02-06T08:33:29.022Z,6.85
2024-02-06T08:35:55.591Z,6.55
2024-02-06T08:38:22.753Z,6.43
2024-02-06T08:40:49.507Z,6.65
2024-02-06T08:43:18.318Z,5.30
2024-02-06T08:45:45.258Z,5.07
2024-02-06T08:48:11.902Z,6.15
2024-02-06T08:50:39.140Z,6.05
2024-02-06T08:53:06.503Z,6.13
2024-02-06T08:55:33.079Z,7.15
2024-02-06T08:57:59.684Z,6.35
2024-02-06T09:00:27.747Z,7.03
2024-02-06T09:02:54.357Z,6.70
2024-02-06T09:05:21.378Z,4.75
2024-02-06T09:07:48.162Z,6.10
2024-02-06T09:10:14.851Z,6.50
2024-02-06T09:12:41.340Z,5.95
2024-02-06T09:15:08.111Z,5.43
2024-02-06T09:17:34.731Z,6.25
2024-02-06T09:20:01.689Z,6.40
2024-02-06T09:22:28.295Z,5.68
2024-02-06T09:24:54.817Z,6.75
2024-02-06T09:27:21.354Z,6.70
2024-02-06T09:29:47.818Z,5.15
2024-02-06T09:32:14.251Z,7.13
2024-02-06T09:34:40.825Z,6.78
2024-02-06T09:37:07.536Z,5.82
2024-02-06T09:39:34.084Z,5.90
2024-02-06T09:42:03.122Z,7.18
2024-02-06T09:44:30.416Z,5.72
2024-02-06T09:46:58.171Z,6.53
2024-02-06T09:49:24.815Z,6.43
2024-02-06T09:51:51.566Z,6.00
2024-02-06T09:54:18.623Z,5.80
2024-02-06T09:56:47.103Z,6.10
2024-02-06T09:59:14.232Z,5.38
2024-02-06T10:01:42.985Z,6.38
2024-02-06T10:04:11.781Z,5.95
2024-02-06T10:06:38.827Z,6.35
2024-02-06T10:09:05.672Z,5.63
2024-02-06T10:11:34.631Z,5.63
2024-02-06T10:14:01.945Z,5.97
2024-02-06T10:16:28.507Z,5.50
2024-02-06T10:18:56.978Z,5.75
2024-02-06T10:21:27.457Z,6.35
2024-02-06T10:24:02.222Z,6.57
2024-02-06T10:26:28.956Z,7.60
2024-02-06T10:29:08.454Z,7.03
2024-02-06T10:31:35.383Z,7.15
2024-02-06T10:34:12.414Z,7.18
2024-02-06T10:36:39.579Z,7.97
2024-02-06T10:39:07.464Z,6.50
2024-02-06T10:41:50.610Z,6.85
2024-02-06T10:44:23.060Z,7.40
2024-02-06T10:46:57.663Z,7.30
2024-02-06T10:49:24.207Z,7.47
2024-02-06T10:51:50.895Z,7.18
2024-02-06T10:54:21.583Z,8.38
2024-02-06T10:56:55.306Z,7.03
2024-02-06T10:59:26.617Z,6.85
2024-02-06T11:01:53.330Z,7.00
2024-02-06T11:04:22.016Z,7.82
2024-02-06T11:06:53.301Z,6.72
2024-02-06T11:09:23.370Z,7.63
2024-02-06T11:11:50.835Z,8.15
2024-02-06T11:14:17.777Z,6.82
2024-02-06T11:16:48.125Z,7.07
2024-02-06T11:19:15.031Z,6.40
2024-02-06T11:21:46.012Z,7.60
2024-02-06T11:24:13.181Z,7.10
2024-02-06T11:26:40.570Z,6.60
2024-02-06T11:29:10.555Z,6.25
2024-02-06T11:31:37.483Z,6.15
2024-02-06T11:34:19.370Z,5.80
2024-02-06T11:36:46.301Z,5.70
2024-02-06T11:39:13.651Z,6.22
2024-02-06T11:41:40.333Z,5.57
2024-02-06T11:44:11.501Z,5.57
2024-02-06T11:46:48.153Z,5.28
2024-02-06T11:49:15.553Z,5.38
2024-02-06T11:51:42.203Z,5.28
2024-02-06T11:54:15.099Z,5.05
2024-02-06T11:56:42.109Z,5.45
2024-02-06T11:59:08.897Z,5.38
2024-02-06T12:01:37.505Z,5.00
2024-02-06T12:04:07.180Z,4.70
2024-02-06T12:06:34.246Z,4.90
2024-02-06T12:09:05.345Z,3.95
2024-02-06T12:11:33.368Z,3.50
2024-02-06T12:14:02.533Z,4.78
2024-02-06T12:16:31.770Z,4.60
2024-02-06T12:18:59.119Z,5.45
2024-02-06T12:21:25.917Z,4.90
2024-02-06T12:24:05.881Z,4.65
2024-02-06T12:26:33.147Z,4.13
2024-02-06T12:29:09.075Z,4.38
2024-02-06T12:31:36.933Z,4.65
2024-02-06T12:34:06.063Z,4.28
2024-02-06T12:36:32.718Z,4.55
2024-02-06T12:38:59.412Z,4.00
2024-02-06T12:41:26.678Z,4.80
2024-02-06T12:43:53.654Z,4.60
2024-02-06T12:46:21.238Z,4.57
2024-02-06T12:48:50.415Z,4.63
2024-02-06T12:51:18.162Z,4.47
2024-02-06T12:53:44.883Z,4.57
2024-02-06T12:56:11.577Z,4.07
2024-02-06T12:58:38.242Z,4.55
2024-02-06T13:01:06.460Z,3.55
2024-02-06T13:03:39.684Z,4.00
2024-02-06T13:06:07.232Z,3.70
2024-02-06T13:08:43.910Z,4.10
2024-02-06T13:11:10.987Z,4.32
2024-02-06T13:13:37.557Z,3.80
2024-02-06T13:16:07.189Z,4.45
2024-02-06T13:18:37.420Z,3.75
2024-02-06T13:21:09.097Z,3.80
2024-02-06T13:23:37.440Z,4.20
2024-02-06T13:26:04.736Z,3.55
2024-02-06T13:28:31.456Z,4.32
2024-02-06T13:30:58.527Z,3.30
2024-02-06T13:33:25.513Z,3.42
2024-02-06T13:35:54.666Z,4.40
2024-02-06T13:38:21.221Z,4.20
2024-02-06T13:40:47.865Z,4.15
2024-02-06T13:43:14.440Z,4.18
2024-02-06T13:45:40.913Z,4.40
2024-02-06T13:48:07.603Z,4.40
2024-02-06T13:50:34.210Z,3.58
2024-02-06T13:53:02.968Z,4.15
2024-02-06T13:55:33.559Z,3.05
2024-02-06T13:58:00.726Z,4.05
2024-02-06T14:00:27.707Z,3.70
2024-02-06T14:02:54.308Z,4.28
2024-02-06T14:05:21.095Z,4.72
2024-02-06T14:07:48.188Z,5.07
2024-02-06T14:10:14.827Z,4.03
2024-02-06T14:12:47.487Z,5.30
2024-02-06T14:15:17.479Z,4.97
2024-02-06T14:17:46.177Z,4.72
2024-02-06T14:20:15.072Z,5.05
2024-02-06T14:22:42.093Z,5.78
2024-02-06T14:25:09.705Z,5.40
2024-02-06T14:27:36.131Z,4.97
2024-02-06T14:30:04.747Z,5.38
2024-02-06T14:32:31.252Z,5.18
2024-02-06T14:34:57.782Z,5.40
2024-02-06T14:37:24.441Z,6.35
2024-02-06T14:39:50.906Z,6.18
2024-02-06T14:42:19.820Z,5.25
2024-02-06T14:44:51.376Z,5.55
2024-02-06T14:47:19.222Z,4.37
2024-02-06T14:49:46.067Z,4.72
2024-02-06T14:52:12.740Z,4.22
2024-02-06T14:54:39.381Z,4.68
2024-02-06T14:57:07.041Z,4.95
2024-02-06T14:59:33.587Z,4.32
2024-02-06T15:02:00.031Z,6.18
2024-02-06T15:04:26.620Z,4.30
2024-02-06T15:06:53.321Z,4.07
2024-02-06T15:09:20.568Z,5.20
2024-02-06T15:11:47.049Z,4.55
2024-02-06T15:14:13.606Z,4.60
2024-02-06T15:16:41.518Z,5.22
2024-02-06T15:19:08.956Z,4.80
2024-02-06T15:21:35.559Z,5.78
2024-02-06T15:24:02.080Z,4.53
2024-02-06T15:26:30.457Z,4.70
2024-02-06T15:28:58.186Z,5.43
2024-02-06T15:31:24.708Z,4.95
2024-02-06T15:33:52.399Z,5.78
2024-02-06T15:36:18.980Z,5.00
2024-02-06T15:38:46.946Z,5.47
2024-02-06T15:41:13.399Z,4.50
2024-02-06T15:43:40.038Z,6.78
2024-02-06T15:46:09.079Z,4.53
2024-02-06T15:48:36.528Z,4.60
2024-02-06T15:51:04.217Z,4.97
2024-02-06T15:53:31.356Z,4.20
2024-02-06T15:55:58.081Z,4.78
2024-02-06T15:58:24.641Z,4.38
2024-02-06T16:00:51.265Z,4.72
2024-02-06T16:03:17.705Z,4.95
2024-02-06T16:05:44.277Z,4.43
2024-02-06T16:08:10.904Z,4.88
2024-02-06T16:10:37.453Z,5.00
2024-02-06T16:13:04.038Z,4.85
2024-02-06T16:15:30.527Z,5.38
2024-02-06T16:17:57.068Z,4.97
2024-02-06T16:20:23.800Z,5.13
2024-02-06T16:22:50.542Z,3.90
2024-02-06T16:25:18.442Z,4.55
2024-02-06T16:27:48.351Z,4.13
2024-02-06T16:30:15.559Z,5.60
2024-02-06T16:32:42.049Z,6.50
2024-02-06T16:35:13.009Z,4.97
2024-02-06T16:37:40.596Z,5.25
2024-02-06T16:40:07.695Z,5.65
2024-02-06T16:42:34.201Z,4.63
2024-02-06T16:45:00.649Z,5.30
2024-02-06T16:47:27.183Z,4.43
2024-02-06T16:49:54.114Z,5.25
2024-02-06T16:52:21.170Z,5.43
2024-02-06T16:54:47.661Z,4.97
2024-02-06T16:57:14.275Z,5.22
2024-02-06T16:59:40.706Z,4.90
2024-02-06T17:02:07.223Z,4.65
2024-02-06T17:04:33.848Z,5.53
2024-02-06T17:07:00.580Z,4.75
2024-02-06T17:09:27.128Z,5.13
2024-02-06T17:11:53.776Z,5.35
2024-02-06T17:14:20.341Z,5.28
2024-02-06T17:16:47.324Z,5.57
2024-02-06T17:19:14.665Z,5.25
2024-02-06T17:21:44.240Z,4.72
2024-02-06T17:24:10.919Z,4.50
2024-02-06T17:26:37.376Z,5.30
2024-02-06T17:29:04.023Z,5.22
2024-02-06T17:31:30.504Z,5.25
2024-02-06T17:33:57.210Z,5.85
2024-02-06T17:36:23.901Z,4.50
2024-02-06T17:38:50.409Z,5.38
2024-02-06T17:41:17.038Z,5.13
2024-02-06T17:43:43.648Z,4.65
2024-02-06T17:46:10.333Z,4.75
2024-02-06T17:48:39.521Z,4.90
2024-02-06T17:51:07.580Z,4.97
2024-02-06T17:53:35.617Z,5.28
2024-02-06T17:56:02.716Z,4.72
2024-02-06T17:58:29.329Z,4.72
2024-02-06T18:00:56.044Z,5.03
2024-02-06T18:03:22.721Z,5.05
2024-02-06T18:05:49.293Z,5.47
2024-02-06T18:08:15.805Z,4.63
2024-02-06T18:10:42.492Z,5.55
2024-02-06T18:13:09.155Z,5.40
2024-02-06T18:15:35.700Z,4.85
2024-02-06T18:18:02.786Z,4.80
2024-02-06T18:20:29.620Z,5.03
2024-02-06T18:22:56.137Z,5.53
2024-02-06T18:25:24.610Z,4.43
2024-02-06T18:27:51.201Z,5.53
2024-02-06T18:30:18.982Z,5.63
2024-02-06T18:32:45.679Z,4.60
2024-02-06T18:35:12.541Z,5.45
2024-02-06T18:37:39.264Z,4.65
2024-02-06T18:40:06.272Z,4.80
2024-02-06T18:42:32.922Z,4.85
2024-02-06T18:44:59.366Z,5.30
2024-02-06T18:47:25.985Z,7.60
2024-02-06T18:49:52.586Z,5.85
2024-02-06T18:52:19.120Z,6.65
2024-02-06T18:54:52.331Z,4.97
2024-02-06T18:57:19.485Z,5.05
2024-02-06T18:59:46.316Z,5.45
2024-02-06T19:02:13.442Z,4.90
2024-02-06T19:04:40.058Z,4.55
2024-02-06T19:07:06.723Z,4.47
2024-02-06T19:09:33.307Z,3.92
2024-02-06T19:11:59.746Z,4.95
2024-02-06T19:14:26.491Z,6.68
2024-02-06T19:16:53.007Z,4.90
2024-02-06T19:19:19.671Z,5.78
2024-02-06T19:21:46.605Z,5.40
2024-02-06T19:24:13.333Z,4.45
2024-02-06T19:26:40.489Z,5.65
2024-02-06T19:29:07.242Z,5.60
2024-02-06T19:31:36.826Z,5.75
2024-02-06T19:34:04.284Z,4.85
2024-02-06T19:36:31.576Z,6.05
2024-02-06T19:38:58.388Z,4.93
2024-02-06T19:41:24.854Z,5.13
2024-02-06T19:43:51.842Z,6.00
2024-02-06T19:46:18.510Z,4.95
2024-02-06T19:48:45.041Z,4.70
2024-02-06T19:51:12.056Z,5.22
2024-02-06T19:53:39.430Z,4.90
2024-02-06T19:56:06.688Z,4.65
2024-02-06T19:58:33.216Z,4.78
2024-02-06T20:00:59.776Z,5.30
2024-02-06T20:03:26.287Z,4.80
2024-02-06T20:05:52.884Z,5.53
2024-02-06T20:08:20.494Z,5.28
2024-02-06T20:10:47.068Z,5.18
2024-02-06T20:13:13.994Z,5.68
2024-02-06T20:15:41.757Z,5.93
2024-02-06T20:18:09.232Z,6.43
2024-02-06T20:20:35.816Z,6.00
2024-02-06T20:23:02.283Z,4.70
2024-02-06T20:25:29.182Z,4.78
2024-02-06T20:27:55.755Z,5.10
2024-02-06T20:30:22.315Z,6.00
2024-02-06T20:32:48.778Z,5.50
2024-02-06T20:35:15.734Z,5.60
2024-02-06T20:37:42.366Z,5.15
2024-02-06T20:40:10.137Z,5.22
2024-02-06T20:42:36.728Z,4.70
2024-02-06T20:45:03.274Z,4.50
2024-02-06T20:47:29.885Z,5.43
2024-02-06T20:49:56.544Z,4.95
2024-02-06T20:52:23.200Z,5.30
2024-02-06T20:54:49.763Z,5.93
2024-02-06T20:57:16.209Z,6.13
2024-02-06T20:59:42.745Z,5.18
2024-02-06T21:02:09.266Z,5.63
2024-02-06T21:04:36.184Z,7.43
2024-02-06T21:07:02.866Z,5.47
2024-02-06T21:09:29.460Z,5.32
2024-02-06T21:11:56.001Z,6.03
2024-02-06T21:14:22.571Z,6.35
2024-02-06T21:16:49.299Z,5.60
2024-02-06T21:19:16.047Z,5.45
2024-02-06T21:21:43.299Z,5.65
2024-02-06T21:24:09.848Z,6.25
2024-02-06T21:26:37.384Z,6.05
2024-02-06T21:29:04.068Z,4.60
2024-02-06T21:31:33.002Z,5.38
2024-02-06T21:34:00.381Z,6.18
2024-02-06T21:36:27.384Z,5.28
2024-02-06T21:38:53.897Z,6.30
2024-02-06T21:41:20.376Z,6.68
2024-02-06T21:43:47.004Z,6.07
2024-02-06T21:46:13.568Z,5.55
2024-02-06T21:48:40.081Z,5.63
2024-02-06T21:51:06.651Z,6.20
2024-02-06T21:53:33.109Z,6.00
2024-02-06T21:56:08.546Z,5.78
2024-02-06T21:58:42.078Z,5.47
2024-02-06T22:01:08.719Z,5.82
2024-02-06T22:03:35.321Z,6.22
2024-02-06T22:06:01.869Z,6.53
2024-02-06T22:08:28.368Z,6.25
2024-02-06T22:10:56.032Z,6.80
2024-02-06T22:13:25.955Z,6.47
2024-02-06T22:15:52.460Z,6.57
2024-02-06T22:18:19.145Z,6.22
2024-02-06T22:20:45.653Z,5.57
2024-02-06T22:23:12.193Z,5.82
2024-02-06T22:25:38.843Z,6.40
2024-02-06T22:28:05.383Z,6.38
2024-02-06T22:30:31.870Z,6.38
2024-02-06T22:32:58.680Z,5.82
2024-02-06T22:35:25.320Z,6.40
2024-02-06T22:37:53.667Z,7.13
2024-02-06T22:40:20.776Z,7.05
2024-02-06T22:42:47.753Z,7.05
2024-02-06T22:45:14.749Z,7.10
2024-02-06T22:47:41.484Z,6.47
2024-02-06T22:50:08.290Z,6.13
2024-02-06T22:52:34.952Z,7.28
2024-02-06T22:55:01.614Z,6.93
2024-02-06T22:57:28.081Z,6.40
2024-02-06T22:59:54.558Z,6.68
2024-02-06T23:02:22.066Z,6.93
2024-02-06T23:04:48.752Z,6.65
2024-02-06T23:07:15.333Z,8.18
2024-02-06T23:09:45.047Z,7.32
2024-02-06T23:12:11.502Z,7.25
2024-02-06T23:14:37.941Z,6.90
2024-02-06T23:17:04.511Z,7.00
2024-02-06T23:19:30.973Z,7.25
2024-02-06T23:21:57.679Z,8.60
2024-02-06T23:24:24.112Z,8.55
2024-02-06T23:26:50.547Z,8.05
2024-02-06T23:29:17.037Z,7.75
2024-02-06T23:31:44.556Z,8.77
2024-02-06T23:34:11.773Z,8.05
2024-02-06T23:36:39.110Z,7.50
2024-02-06T23:39:15.081Z,8.00
2024-02-06T23:41:43.119Z,7.28
2024-02-06T23:44:10.577Z,8.40
2024-02-06T23:46:37.302Z,7.32
2024-02-06T23:49:04.158Z,7.10
2024-02-06T23:51:30.799Z,7.28
2024-02-06T23:53:57.285Z,7.50
2024-02-06T23:56:23.808Z,7.60
2024-02-06T23:58:50.477Z,7.40
